createdAt,value
2019-02-11T00:00:17.213Z,7.47
2019-02-11T00:00:43.319Z,7.53
2019-02-11T00:01:09.413Z,7.58
2019-02-11T00:01:35.522Z,7.54
2019-02-11T00:02:01.625Z,7.51
2019-02-11T00:02:27.724Z,7.61
2019-02-11T00:02:53.864Z,7.58
2019-02-11T00:03:20.003Z,7.57
2019-02-11T00:03:46.109Z,7.72
2019-02-11T00:04:14.217Z,7.66
2019-02-11T00:04:40.328Z,7.58
2019-02-11T00:05:06.428Z,7.63
2019-02-11T00:05:32.535Z,7.66
2019-02-11T00:05:58.701Z,7.67
2019-02-11T00:06:24.807Z,7.66
2019-02-11T00:06:50.923Z,7.66
2019-02-11T00:07:17.086Z,7.69
2019-02-11T00:07:43.211Z,7.67
2019-02-11T00:08:09.316Z,7.66
2019-02-11T00:08:35.426Z,7.56
2019-02-11T00:09:01.540Z,7.6
2019-02-11T00:09:27.641Z,7.66
2019-02-11T00:09:53.749Z,7.63
2019-02-11T00:10:19.851Z,7.67
2019-02-11T00:10:45.966Z,7.69
2019-02-11T00:11:12.094Z,7.66
2019-02-11T00:11:38.204Z,7.67
2019-02-11T00:12:04.304Z,7.7
2019-02-11T00:12:30.415Z,7.72
2019-02-11T00:12:56.527Z,7.69
2019-02-11T00:13:22.672Z,7.66
2019-02-11T00:13:48.811Z,7.75
2019-02-11T00:14:14.922Z,7.67
2019-02-11T00:14:41.035Z,7.7
2019-02-11T00:15:07.135Z,7.7
2019-02-11T00:15:33.242Z,7.73
2019-02-11T00:15:59.348Z,7.66
2019-02-11T00:16:25.461Z,7.67
2019-02-11T00:16:51.563Z,7.7
2019-02-11T00:17:17.665Z,7.73
2019-02-11T00:17:43.770Z,7.67
2019-02-11T00:18:09.876Z,7.69
2019-02-11T00:18:35.981Z,7.75
2019-02-11T00:19:02.119Z,7.72
2019-02-11T00:19:28.224Z,7.67
2019-02-11T00:19:54.353Z,7.69
2019-02-11T00:20:20.490Z,7.69
2019-02-11T00:20:46.655Z,7.7
2019-02-11T00:21:12.771Z,7.67
2019-02-11T00:21:38.902Z,7.76
2019-02-11T00:22:05.017Z,7.67
2019-02-11T00:22:31.118Z,7.69
2019-02-11T00:22:57.225Z,7.83
2019-02-11T00:23:23.356Z,7.73
2019-02-11T00:23:49.465Z,7.7
2019-02-11T00:24:15.571Z,7.72
2019-02-11T00:24:41.679Z,7.67
2019-02-11T00:25:07.783Z,7.67
2019-02-11T00:25:33.882Z,7.79
2019-02-11T00:25:59.986Z,7.73
2019-02-11T00:26:26.093Z,7.7
2019-02-11T00:26:52.208Z,7.7
2019-02-11T00:27:18.311Z,7.75
2019-02-11T00:27:44.419Z,7.69
2019-02-11T00:28:10.528Z,7.72
2019-02-11T00:28:36.637Z,7.63
2019-02-11T00:29:02.735Z,7.7
2019-02-11T00:29:28.840Z,7.69
2019-02-11T00:29:54.945Z,7.72
2019-02-11T00:30:21.114Z,7.7
2019-02-11T00:30:47.221Z,7.7
2019-02-11T00:31:13.347Z,7.7
2019-02-11T00:31:39.558Z,7.73
2019-02-11T00:32:05.666Z,7.7
2019-02-11T00:32:31.774Z,7.8
2019-02-11T00:32:58.011Z,7.79
2019-02-11T00:33:24.172Z,7.79
2019-02-11T00:33:50.281Z,7.79
2019-02-11T00:34:16.424Z,7.82
2019-02-11T00:34:42.556Z,7.83
2019-02-11T00:35:08.660Z,7.69
2019-02-11T00:35:34.769Z,7.77
2019-02-11T00:36:00.870Z,7.87
2019-02-11T00:36:26.978Z,7.85
2019-02-11T00:36:53.089Z,7.8
2019-02-11T00:37:19.195Z,7.82
2019-02-11T00:37:45.303Z,7.85
2019-02-11T00:38:11.408Z,7.85
2019-02-11T00:38:37.510Z,7.82
2019-02-11T00:39:03.624Z,7.82
2019-02-11T00:39:29.730Z,7.8
2019-02-11T00:39:55.836Z,7.79
2019-02-11T00:40:21.940Z,7.8
2019-02-11T00:40:48.049Z,7.87
2019-02-11T00:41:14.154Z,7.77
2019-02-11T00:41:40.261Z,7.79
2019-02-11T00:42:06.366Z,7.88
2019-02-11T00:42:32.501Z,7.8
2019-02-11T00:42:58.607Z,7.83
2019-02-11T00:43:25.697Z,7.88
2019-02-11T00:43:51.839Z,7.8
2019-02-11T00:44:17.941Z,7.82
2019-02-11T00:44:44.049Z,7.88
2019-02-11T00:45:10.155Z,7.79
2019-02-11T00:45:36.257Z,7.83
2019-02-11T00:46:02.360Z,7.82
2019-02-11T00:46:28.468Z,7.87
2019-02-11T00:46:54.572Z,7.88
2019-02-11T00:47:20.681Z,7.95
2019-02-11T00:47:46.786Z,7.93
2019-02-11T00:48:12.892Z,8
2019-02-11T00:48:39.003Z,7.93
2019-02-11T00:49:05.125Z,7.94
2019-02-11T00:49:31.261Z,7.94
2019-02-11T00:49:57.373Z,7.77
2019-02-11T00:50:23.511Z,7.94
2019-02-11T00:50:49.614Z,7.91
2019-02-11T00:51:15.750Z,7.94
2019-02-11T00:51:41.853Z,7.94
2019-02-11T00:52:07.959Z,7.87
2019-02-11T00:52:34.096Z,7.83
2019-02-11T00:53:00.231Z,7.8
2019-02-11T00:53:26.330Z,7.82
2019-02-11T00:53:53.033Z,7.82
2019-02-11T00:54:19.140Z,7.77
2019-02-11T00:54:45.247Z,7.77
2019-02-11T00:55:11.364Z,7.83
2019-02-11T00:55:37.456Z,7.82
2019-02-11T00:56:03.544Z,7.77
2019-02-11T00:56:29.635Z,7.83
2019-02-11T00:56:55.724Z,7.88
2019-02-11T00:57:21.814Z,7.82
2019-02-11T00:57:47.925Z,7.93
2019-02-11T00:58:14.032Z,7.93
2019-02-11T00:58:40.135Z,7.95
2019-02-11T00:59:06.248Z,7.91
2019-02-11T00:59:32.353Z,7.88
2019-02-11T00:59:58.458Z,7.83
2019-02-11T01:00:24.568Z,7.88
2019-02-11T01:00:50.677Z,7.83
2019-02-11T01:01:16.785Z,7.94
2019-02-11T01:01:42.892Z,7.82
2019-02-11T01:02:09.002Z,7.8
2019-02-11T01:02:35.111Z,7.82
2019-02-11T01:03:01.207Z,7.8
2019-02-11T01:03:27.313Z,7.83
2019-02-11T01:03:53.430Z,7.87
2019-02-11T01:04:19.558Z,7.82
2019-02-11T01:04:45.665Z,7.83
2019-02-11T01:05:11.770Z,7.87
2019-02-11T01:05:37.876Z,7.83
2019-02-11T01:06:03.976Z,7.77
2019-02-11T01:06:30.088Z,7.82
2019-02-11T01:06:56.187Z,7.82
2019-02-11T01:07:23.285Z,7.83
2019-02-11T01:07:49.394Z,7.93
2019-02-11T01:08:15.531Z,7.95
2019-02-11T01:08:41.674Z,7.94
2019-02-11T01:09:07.777Z,7.93
2019-02-11T01:09:33.894Z,7.85
2019-02-11T01:10:00.000Z,7.88
2019-02-11T01:10:26.138Z,7.98
2019-02-11T01:10:52.247Z,7.77
2019-02-11T01:11:18.379Z,7.9
2019-02-11T01:11:44.520Z,7.79
2019-02-11T01:12:10.620Z,7.79
2019-02-11T01:12:36.730Z,7.77
2019-02-11T01:13:02.831Z,7.88
2019-02-11T01:13:29.931Z,7.82
2019-02-11T01:13:56.088Z,7.94
2019-02-11T01:14:22.191Z,7.93
2019-02-11T01:14:48.300Z,7.97
2019-02-11T01:15:14.433Z,7.94
2019-02-11T01:15:40.568Z,7.97
2019-02-11T01:16:06.673Z,7.87
2019-02-11T01:16:32.815Z,7.82
2019-02-11T01:16:58.917Z,7.87
2019-02-11T01:17:25.029Z,7.85
2019-02-11T01:17:51.136Z,7.83
2019-02-11T01:18:17.247Z,7.82
2019-02-11T01:18:43.352Z,7.85
2019-02-11T01:19:09.478Z,7.8
2019-02-11T01:19:35.584Z,7.82
2019-02-11T01:20:01.694Z,7.76
2019-02-11T01:20:27.792Z,7.82
2019-02-11T01:20:53.924Z,7.83
2019-02-11T01:21:20.027Z,7.85
2019-02-11T01:21:46.134Z,7.76
2019-02-11T01:22:12.252Z,7.73
2019-02-11T01:22:38.351Z,7.77
2019-02-11T01:23:04.460Z,7.8
2019-02-11T01:23:30.568Z,7.87
2019-02-11T01:23:56.677Z,7.79
2019-02-11T01:24:22.811Z,7.8
2019-02-11T01:24:48.946Z,7.8
2019-02-11T01:25:15.079Z,7.85
2019-02-11T01:25:41.195Z,7.82
2019-02-11T01:26:07.293Z,7.83
2019-02-11T01:26:33.404Z,7.83
2019-02-11T01:26:59.507Z,7.83
2019-02-11T01:27:25.617Z,7.93
2019-02-11T01:27:51.724Z,7.87
2019-02-11T01:28:17.852Z,7.85
2019-02-11T01:28:43.990Z,7.83
2019-02-11T01:29:10.098Z,7.83
2019-02-11T01:29:36.262Z,7.93
2019-02-11T01:30:02.413Z,7.94
2019-02-11T01:30:28.531Z,7.95
2019-02-11T01:30:54.670Z,7.94
2019-02-11T01:31:20.795Z,7.9
2019-02-11T01:31:46.907Z,7.97
2019-02-11T01:32:13.015Z,7.91
2019-02-11T01:32:39.144Z,7.94
2019-02-11T01:33:05.249Z,7.93
2019-02-11T01:33:31.353Z,7.93
2019-02-11T01:33:57.457Z,7.97
2019-02-11T01:34:23.593Z,7.91
2019-02-11T01:34:49.725Z,7.88
2019-02-11T01:35:15.932Z,7.95
2019-02-11T01:35:42.042Z,7.91
2019-02-11T01:36:08.144Z,7.97
2019-02-11T01:36:34.246Z,7.91
2019-02-11T01:37:00.351Z,7.91
2019-02-11T01:37:26.486Z,7.91
2019-02-11T01:37:52.581Z,8
2019-02-11T01:38:18.722Z,8
2019-02-11T01:38:44.827Z,8.01
2019-02-11T01:39:10.921Z,7.97
2019-02-11T01:39:37.062Z,7.9
2019-02-11T01:40:03.161Z,7.93
2019-02-11T01:40:29.268Z,7.9
2019-02-11T01:40:55.368Z,7.88
2019-02-11T01:41:21.471Z,7.95
2019-02-11T01:41:47.584Z,7.91
2019-02-11T01:42:13.682Z,7.93
2019-02-11T01:42:39.794Z,7.77
2019-02-11T01:43:05.898Z,7.93
2019-02-11T01:43:36.023Z,7.82
2019-02-11T01:43:58.127Z,7.82
2019-02-11T01:44:24.229Z,7.88
2019-02-11T01:44:50.344Z,7.87
2019-02-11T01:45:16.451Z,7.83
2019-02-11T01:45:42.579Z,7.77
2019-02-11T01:46:08.685Z,7.8
2019-02-11T01:46:34.789Z,7.82
2019-02-11T01:47:00.889Z,7.82
2019-02-11T01:47:27.027Z,7.87
2019-02-11T01:47:53.132Z,7.94
2019-02-11T01:48:19.241Z,7.94
2019-02-11T01:48:45.342Z,7.95
2019-02-11T01:49:11.456Z,7.98
2019-02-11T01:49:37.555Z,8
2019-02-11T01:50:03.665Z,7.98
2019-02-11T01:50:29.788Z,7.98
2019-02-11T01:50:55.889Z,7.98
2019-02-11T01:51:22.001Z,7.95
2019-02-11T01:51:48.102Z,7.95
2019-02-11T01:52:14.205Z,8
2019-02-11T01:52:40.342Z,7.97
2019-02-11T01:53:06.449Z,7.94
2019-02-11T01:53:32.590Z,7.98
2019-02-11T01:53:58.719Z,7.97
2019-02-11T01:54:24.855Z,8
2019-02-11T01:54:50.956Z,7.95
2019-02-11T01:55:17.070Z,7.94
2019-02-11T01:55:43.170Z,7.95
2019-02-11T01:56:09.281Z,7.93
2019-02-11T01:56:35.383Z,7.93
2019-02-11T01:57:01.503Z,7.98
2019-02-11T01:57:27.607Z,8
2019-02-11T01:57:53.714Z,7.95
2019-02-11T01:58:19.817Z,7.97
2019-02-11T01:58:45.930Z,7.98
2019-02-11T01:59:12.032Z,7.97
2019-02-11T01:59:38.134Z,7.98
2019-02-11T02:00:04.239Z,8
2019-02-11T02:00:30.347Z,7.98
2019-02-11T02:00:56.466Z,7.93
2019-02-11T02:01:22.578Z,7.97
2019-02-11T02:01:48.683Z,7.97
2019-02-11T02:02:14.784Z,7.98
2019-02-11T02:02:40.895Z,7.95
2019-02-11T02:03:07.025Z,7.9
2019-02-11T02:03:33.126Z,7.94
2019-02-11T02:03:59.236Z,7.91
2019-02-11T02:04:25.382Z,7.88
2019-02-11T02:04:51.475Z,7.91
2019-02-11T02:05:17.578Z,7.93
2019-02-11T02:05:43.683Z,7.8
2019-02-11T02:06:09.778Z,7.82
2019-02-11T02:06:35.911Z,7.88
2019-02-11T02:07:02.015Z,7.91
2019-02-11T02:07:28.122Z,7.97
2019-02-11T02:07:54.229Z,7.97
2019-02-11T02:08:20.359Z,8.01
2019-02-11T02:08:46.493Z,8
2019-02-11T02:09:12.595Z,7.94
2019-02-11T02:09:38.698Z,7.95
2019-02-11T02:10:04.804Z,8.01
2019-02-11T02:10:30.912Z,7.95
2019-02-11T02:10:57.086Z,7.91
2019-02-11T02:11:23.202Z,7.95
2019-02-11T02:11:49.313Z,7.94
2019-02-11T02:12:15.417Z,7.97
2019-02-11T02:12:41.529Z,7.98
2019-02-11T02:13:07.660Z,8.01
2019-02-11T02:13:33.765Z,7.93
2019-02-11T02:14:00.888Z,7.95
2019-02-11T02:14:26.998Z,7.93
2019-02-11T02:14:53.099Z,8
2019-02-11T02:15:19.233Z,7.98
2019-02-11T02:15:45.361Z,8
2019-02-11T02:16:11.470Z,7.98
2019-02-11T02:16:37.579Z,7.95
2019-02-11T02:17:03.686Z,8
2019-02-11T02:17:29.787Z,8
2019-02-11T02:17:55.898Z,7.94
2019-02-11T02:18:22.003Z,7.95
2019-02-11T02:18:48.109Z,8
2019-02-11T02:19:14.218Z,8.03
2019-02-11T02:19:40.322Z,8.01
2019-02-11T02:20:06.431Z,8.01
2019-02-11T02:20:32.535Z,7.94
2019-02-11T02:20:58.667Z,7.94
2019-02-11T02:21:24.772Z,7.9
2019-02-11T02:21:50.882Z,7.95
2019-02-11T02:22:16.986Z,7.9
2019-02-11T02:22:43.149Z,7.95
2019-02-11T02:23:09.252Z,7.98
2019-02-11T02:23:35.387Z,7.97
2019-02-11T02:24:01.489Z,7.95
2019-02-11T02:24:27.595Z,7.94
2019-02-11T02:24:53.703Z,8.05
2019-02-11T02:25:19.803Z,7.98
2019-02-11T02:25:45.916Z,7.95
2019-02-11T02:26:12.019Z,7.95
2019-02-11T02:26:38.184Z,7.95
2019-02-11T02:27:04.294Z,7.98
2019-02-11T02:27:30.433Z,7.97
2019-02-11T02:27:56.559Z,7.95
2019-02-11T02:28:22.663Z,8.01
2019-02-11T02:28:48.796Z,7.93
2019-02-11T02:29:14.897Z,7.93
2019-02-11T02:29:41.006Z,7.95
2019-02-11T02:30:07.115Z,7.97
2019-02-11T02:30:33.247Z,7.95
2019-02-11T02:30:59.352Z,8
2019-02-11T02:31:25.481Z,8
2019-02-11T02:31:51.619Z,8.05
2019-02-11T02:32:17.762Z,8.03
2019-02-11T02:32:43.861Z,8.09
2019-02-11T02:33:09.971Z,8.13
2019-02-11T02:33:36.106Z,8.1
2019-02-11T02:34:02.216Z,8.05
2019-02-11T02:34:28.362Z,8.15
2019-02-11T02:34:54.483Z,8.15
2019-02-11T02:35:20.597Z,8.23
2019-02-11T02:35:46.735Z,8.18
2019-02-11T02:36:12.860Z,8.13
2019-02-11T02:36:38.997Z,8.15
2019-02-11T02:37:05.109Z,8.15
2019-02-11T02:37:31.250Z,8.15
2019-02-11T02:37:57.353Z,8.12
2019-02-11T02:38:23.514Z,8.15
2019-02-11T02:38:49.617Z,8.23
2019-02-11T02:39:15.761Z,8.2
2019-02-11T02:39:41.895Z,8.19
2019-02-11T02:40:08.002Z,8.12
2019-02-11T02:40:34.139Z,8.12
2019-02-11T02:41:00.243Z,8.09
2019-02-11T02:41:26.380Z,8.12
2019-02-11T02:41:52.542Z,8.16
2019-02-11T02:42:18.675Z,8.1
2019-02-11T02:42:44.780Z,8.06
2019-02-11T02:43:10.913Z,8.03
2019-02-11T02:43:37.026Z,8.1
2019-02-11T02:44:04.146Z,8.13
2019-02-11T02:44:30.283Z,8.08
2019-02-11T02:44:56.438Z,8.09
2019-02-11T02:45:22.552Z,8.15
2019-02-11T02:45:48.672Z,8.1
2019-02-11T02:46:14.762Z,8.13
2019-02-11T02:46:40.901Z,8.1
2019-02-11T02:47:07.008Z,8.08
2019-02-11T02:47:33.144Z,7.98
2019-02-11T02:47:59.248Z,8.01
2019-02-11T02:48:25.361Z,8.08
2019-02-11T02:48:51.465Z,7.98
2019-02-11T02:49:17.566Z,8.06
2019-02-11T02:49:43.698Z,8.06
2019-02-11T02:50:09.837Z,8.01
2019-02-11T02:50:35.982Z,8.1
2019-02-11T02:51:02.110Z,8.16
2019-02-11T02:51:28.248Z,8.03
2019-02-11T02:51:54.382Z,8.1
2019-02-11T02:52:20.488Z,8.09
2019-02-11T02:52:46.592Z,8.08
2019-02-11T02:53:12.699Z,8.05
2019-02-11T02:53:38.834Z,7.98
2019-02-11T02:54:04.942Z,8
2019-02-11T02:54:31.049Z,7.98
2019-02-11T02:54:57.215Z,8.05
2019-02-11T02:55:23.395Z,7.95
2019-02-11T02:55:49.510Z,8.05
2019-02-11T02:56:15.612Z,8.1
2019-02-11T02:56:41.745Z,8.09
2019-02-11T02:57:07.852Z,8.1
2019-02-11T02:57:33.991Z,8.16
2019-02-11T02:58:00.124Z,8.08
2019-02-11T02:58:26.259Z,8.15
2019-02-11T02:58:52.368Z,8.09
2019-02-11T02:59:18.510Z,8.1
2019-02-11T02:59:44.644Z,8.09
2019-02-11T03:00:10.765Z,8.03
2019-02-11T03:00:36.876Z,8.12
2019-02-11T03:01:03.007Z,8.03
2019-02-11T03:01:29.149Z,8.06
2019-02-11T03:01:55.255Z,8.1
2019-02-11T03:02:21.358Z,8.09
2019-02-11T03:02:47.456Z,8.13
2019-02-11T03:03:13.624Z,8.16
2019-02-11T03:03:39.725Z,8.12
2019-02-11T03:04:05.837Z,8.15
2019-02-11T03:04:31.969Z,8.09
2019-02-11T03:04:58.072Z,8.15
2019-02-11T03:05:24.217Z,8.05
2019-02-11T03:05:52.795Z,8.13
2019-02-11T03:06:17.446Z,8.13
2019-02-11T03:06:43.585Z,8.19
2019-02-11T03:07:09.719Z,8.2
2019-02-11T03:07:35.826Z,8.19
2019-02-11T03:08:01.958Z,8.23
2019-02-11T03:08:28.086Z,8.16
2019-02-11T03:08:54.246Z,8.19
2019-02-11T03:09:20.352Z,8.16
2019-02-11T03:09:46.490Z,8.19
2019-02-11T03:10:12.650Z,8.15
2019-02-11T03:10:38.767Z,8.12
2019-02-11T03:11:04.873Z,8.13
2019-02-11T03:11:30.999Z,8.2
2019-02-11T03:11:57.108Z,8.18
2019-02-11T03:12:23.240Z,8.19
2019-02-11T03:12:49.408Z,8.23
2019-02-11T03:13:15.510Z,8.2
2019-02-11T03:13:41.616Z,8.19
2019-02-11T03:14:09.701Z,8.18
2019-02-11T03:14:35.805Z,8.24
2019-02-11T03:15:01.909Z,8.13
2019-02-11T03:15:28.050Z,8.13
2019-02-11T03:15:54.166Z,8.13
2019-02-11T03:16:20.293Z,8.18
2019-02-11T03:16:46.435Z,8.15
2019-02-11T03:17:12.546Z,8.16
2019-02-11T03:17:38.645Z,8.15
2019-02-11T03:18:04.755Z,8.15
2019-02-11T03:18:30.920Z,8.13
2019-02-11T03:18:57.030Z,8.09
2019-02-11T03:19:23.132Z,8.12
2019-02-11T03:19:49.241Z,8.12
2019-02-11T03:20:15.375Z,8.18
2019-02-11T03:20:41.508Z,8.08
2019-02-11T03:21:07.612Z,8.18
2019-02-11T03:21:33.720Z,8.2
2019-02-11T03:21:59.831Z,8.16
2019-02-11T03:22:25.939Z,8.19
2019-02-11T03:22:52.104Z,8.15
2019-02-11T03:23:18.211Z,8.2
2019-02-11T03:23:44.339Z,8.15
2019-02-11T03:24:10.476Z,8.18
2019-02-11T03:24:36.602Z,8.15
2019-02-11T03:25:02.744Z,8.23
2019-02-11T03:25:28.897Z,8.16
2019-02-11T03:25:55.006Z,8.13
2019-02-11T03:26:21.137Z,8.2
2019-02-11T03:26:47.244Z,8.18
2019-02-11T03:27:13.388Z,8.19
2019-02-11T03:27:39.486Z,8.16
2019-02-11T03:28:05.643Z,8.23
2019-02-11T03:28:31.785Z,8.23
2019-02-11T03:28:57.917Z,8.18
2019-02-11T03:29:24.058Z,8.15
2019-02-11T03:29:50.161Z,8.18
2019-02-11T03:30:16.296Z,8.19
2019-02-11T03:30:42.429Z,8.23
2019-02-11T03:31:08.623Z,8.19
2019-02-11T03:31:34.762Z,8.16
2019-02-11T03:32:00.922Z,8.15
2019-02-11T03:32:27.067Z,8.18
2019-02-11T03:32:53.235Z,8.23
2019-02-11T03:33:19.410Z,8.16
2019-02-11T03:33:45.627Z,8.15
2019-02-11T03:34:11.757Z,8.16
2019-02-11T03:34:37.863Z,8.16
2019-02-11T03:35:03.971Z,8.15
2019-02-11T03:35:30.103Z,8.15
2019-02-11T03:35:56.214Z,8.19
2019-02-11T03:36:22.318Z,8.13
2019-02-11T03:36:48.429Z,8.1
2019-02-11T03:37:14.565Z,8.16
2019-02-11T03:37:40.710Z,8.08
2019-02-11T03:38:06.866Z,8.09
2019-02-11T03:38:32.972Z,8.1
2019-02-11T03:38:59.081Z,8.08
2019-02-11T03:39:25.236Z,8.1
2019-02-11T03:39:51.367Z,8.09
2019-02-11T03:40:17.491Z,8.13
2019-02-11T03:40:43.621Z,8.13
2019-02-11T03:41:09.786Z,8.1
2019-02-11T03:41:35.928Z,8.13
2019-02-11T03:42:02.034Z,8.08
2019-02-11T03:42:28.174Z,8.15
2019-02-11T03:42:54.302Z,8.05
2019-02-11T03:43:20.434Z,8.16
2019-02-11T03:43:46.548Z,8.12
2019-02-11T03:44:14.977Z,8.09
2019-02-11T03:44:40.408Z,8.06
2019-02-11T03:45:06.517Z,8.09
2019-02-11T03:45:32.629Z,8.08
2019-02-11T03:45:58.733Z,8.08
2019-02-11T03:46:24.859Z,8.15
2019-02-11T03:46:50.976Z,8.16
2019-02-11T03:47:17.076Z,8.13
2019-02-11T03:47:43.271Z,8.15
2019-02-11T03:48:09.431Z,8.16
2019-02-11T03:48:35.540Z,8.2
2019-02-11T03:49:01.645Z,8.18
2019-02-11T03:49:27.775Z,8.15
2019-02-11T03:49:53.882Z,8.13
2019-02-11T03:50:19.986Z,8.16
2019-02-11T03:50:46.117Z,8.15
2019-02-11T03:51:12.222Z,8.1
2019-02-11T03:51:38.353Z,8.06
2019-02-11T03:52:04.520Z,8.08
2019-02-11T03:52:30.683Z,8.12
2019-02-11T03:52:56.791Z,8.12
2019-02-11T03:53:22.923Z,8.06
2019-02-11T03:53:49.036Z,8.05
2019-02-11T03:54:15.142Z,8
2019-02-11T03:54:41.333Z,8.03
2019-02-11T03:55:07.459Z,8.01
2019-02-11T03:55:33.601Z,8
2019-02-11T03:55:59.710Z,8.03
2019-02-11T03:56:25.813Z,7.95
2019-02-11T03:56:51.912Z,8
2019-02-11T03:57:18.051Z,8.01
2019-02-11T03:57:44.166Z,8.01
2019-02-11T03:58:10.275Z,8.03
2019-02-11T03:58:36.432Z,8.05
2019-02-11T03:59:02.560Z,8
2019-02-11T03:59:28.670Z,8.01
2019-02-11T03:59:54.822Z,7.94
2019-02-11T04:00:20.886Z,7.93
2019-02-11T04:00:47.021Z,7.94
2019-02-11T04:01:13.129Z,7.94
2019-02-11T04:01:39.233Z,7.97
2019-02-11T04:02:05.341Z,7.95
2019-02-11T04:02:31.440Z,7.98
2019-02-11T04:02:57.549Z,7.94
2019-02-11T04:03:23.646Z,7.95
2019-02-11T04:03:49.759Z,7.97
2019-02-11T04:04:15.857Z,7.97
2019-02-11T04:04:41.968Z,7.93
2019-02-11T04:05:08.099Z,8.01
2019-02-11T04:05:34.231Z,7.94
2019-02-11T04:06:00.334Z,7.97
2019-02-11T04:06:26.438Z,7.98
2019-02-11T04:06:52.575Z,7.95
2019-02-11T04:07:18.681Z,7.97
2019-02-11T04:07:44.819Z,8.03
2019-02-11T04:08:10.930Z,8.03
2019-02-11T04:08:37.039Z,8.01
2019-02-11T04:09:03.147Z,7.95
2019-02-11T04:09:29.277Z,7.98
2019-02-11T04:09:55.389Z,7.97
2019-02-11T04:10:21.496Z,8.03
2019-02-11T04:10:47.596Z,8
2019-02-11T04:11:13.736Z,7.85
2019-02-11T04:11:39.839Z,7.98
2019-02-11T04:12:06.035Z,7.95
2019-02-11T04:12:32.140Z,7.93
2019-02-11T04:12:58.269Z,7.98
2019-02-11T04:13:24.373Z,7.98
2019-02-11T04:13:50.518Z,8.05
2019-02-11T04:14:24.370Z,7.98
2019-02-11T04:14:44.732Z,7.97
2019-02-11T04:15:10.849Z,7.91
2019-02-11T04:15:36.970Z,7.98
2019-02-11T04:16:03.079Z,7.91
2019-02-11T04:16:29.211Z,8
2019-02-11T04:16:55.339Z,7.98
2019-02-11T04:17:21.439Z,8.01
2019-02-11T04:17:47.545Z,7.95
2019-02-11T04:18:13.654Z,7.94
2019-02-11T04:18:39.754Z,7.93
2019-02-11T04:19:05.897Z,7.97
2019-02-11T04:19:32.002Z,7.93
2019-02-11T04:19:58.102Z,7.93
2019-02-11T04:20:24.242Z,7.97
2019-02-11T04:20:50.374Z,8
2019-02-11T04:21:16.477Z,7.98
2019-02-11T04:21:42.586Z,7.93
2019-02-11T04:22:08.701Z,7.95
2019-02-11T04:22:34.803Z,7.94
2019-02-11T04:23:00.912Z,7.91
2019-02-11T04:23:27.068Z,7.87
2019-02-11T04:23:53.207Z,7.83
2019-02-11T04:24:19.315Z,7.88
2019-02-11T04:24:45.419Z,7.91
2019-02-11T04:25:11.546Z,7.9
2019-02-11T04:25:37.672Z,7.83
2019-02-11T04:26:03.781Z,7.93
2019-02-11T04:26:29.880Z,7.82
2019-02-11T04:26:55.990Z,7.97
2019-02-11T04:27:22.089Z,7.94
2019-02-11T04:27:48.199Z,7.91
2019-02-11T04:28:14.307Z,7.93
2019-02-11T04:28:40.439Z,7.9
2019-02-11T04:29:06.576Z,7.87
2019-02-11T04:29:32.726Z,7.97
2019-02-11T04:29:58.883Z,7.87
2019-02-11T04:30:25.039Z,7.87
2019-02-11T04:30:51.160Z,7.79
2019-02-11T04:31:17.277Z,7.8
2019-02-11T04:31:43.377Z,7.77
2019-02-11T04:32:09.470Z,7.77
2019-02-11T04:32:35.560Z,7.72
2019-02-11T04:33:01.652Z,7.82
2019-02-11T04:33:27.741Z,7.79
2019-02-11T04:33:53.830Z,7.75
2019-02-11T04:34:19.921Z,7.76
2019-02-11T04:34:46.013Z,7.88
2019-02-11T04:35:12.155Z,7.82
2019-02-11T04:35:38.247Z,7.82
2019-02-11T04:36:04.378Z,7.79
2019-02-11T04:36:30.482Z,7.73
2019-02-11T04:36:56.584Z,7.79
2019-02-11T04:37:22.701Z,7.82
2019-02-11T04:37:48.832Z,7.73
2019-02-11T04:38:14.940Z,7.67
2019-02-11T04:38:41.053Z,7.73
2019-02-11T04:39:07.184Z,7.8
2019-02-11T04:39:33.298Z,7.75
2019-02-11T04:39:59.420Z,7.77
2019-02-11T04:40:25.525Z,7.82
2019-02-11T04:40:51.632Z,7.85
2019-02-11T04:41:17.736Z,7.94
2019-02-11T04:41:43.878Z,7.87
2019-02-11T04:42:10.029Z,7.8
2019-02-11T04:42:36.112Z,7.9
2019-02-11T04:43:02.221Z,7.82
2019-02-11T04:43:28.322Z,7.87
2019-02-11T04:43:54.431Z,7.87
2019-02-11T04:44:20.526Z,7.82
2019-02-11T04:44:48.609Z,7.73
2019-02-11T04:45:14.741Z,7.79
2019-02-11T04:45:40.872Z,7.82
2019-02-11T04:46:06.966Z,7.76
2019-02-11T04:46:33.075Z,7.75
2019-02-11T04:46:59.206Z,7.87
2019-02-11T04:47:25.302Z,7.7
2019-02-11T04:47:51.411Z,7.72
2019-02-11T04:48:17.543Z,7.75
2019-02-11T04:48:43.668Z,7.73
2019-02-11T04:49:09.851Z,7.7
2019-02-11T04:49:35.961Z,7.69
2019-02-11T04:50:02.097Z,7.7
2019-02-11T04:50:28.201Z,7.72
2019-02-11T04:50:54.331Z,7.7
2019-02-11T04:51:20.440Z,7.72
2019-02-11T04:51:46.547Z,7.72
2019-02-11T04:52:13.644Z,7.72
2019-02-11T04:52:39.745Z,7.7
2019-02-11T04:53:05.888Z,7.67
2019-02-11T04:53:32.001Z,7.69
2019-02-11T04:53:58.169Z,7.75
2019-02-11T04:54:24.280Z,7.72
2019-02-11T04:54:50.407Z,7.76
2019-02-11T04:55:16.516Z,7.69
2019-02-11T04:55:42.613Z,7.67
2019-02-11T04:56:08.756Z,7.75
2019-02-11T04:56:34.860Z,7.69
2019-02-11T04:57:00.969Z,7.69
2019-02-11T04:57:27.109Z,7.72
2019-02-11T04:57:53.234Z,7.72
2019-02-11T04:58:19.341Z,7.69
2019-02-11T04:58:45.451Z,7.63
2019-02-11T04:59:11.610Z,7.66
2019-02-11T04:59:37.718Z,7.66
2019-02-11T05:00:03.825Z,7.73
2019-02-11T05:00:29.925Z,7.73
2019-02-11T05:00:56.069Z,7.66
2019-02-11T05:01:22.207Z,7.67
2019-02-11T05:01:48.311Z,7.63
2019-02-11T05:02:14.460Z,7.66
2019-02-11T05:02:40.517Z,7.7
2019-02-11T05:03:06.626Z,7.67
2019-02-11T05:03:32.724Z,7.66
2019-02-11T05:03:59.306Z,7.61
2019-02-11T05:04:25.414Z,7.57
2019-02-11T05:04:51.556Z,7.63
2019-02-11T05:05:17.718Z,7.7
2019-02-11T05:05:43.826Z,7.61
2019-02-11T05:06:09.928Z,7.58
2019-02-11T05:06:36.037Z,7.54
2019-02-11T05:07:02.165Z,7.56
2019-02-11T05:07:28.300Z,7.54
2019-02-11T05:07:54.434Z,7.51
2019-02-11T05:08:20.547Z,7.57
2019-02-11T05:08:46.650Z,7.53
2019-02-11T05:09:12.749Z,7.57
2019-02-11T05:09:38.856Z,7.56
2019-02-11T05:10:04.986Z,7.58
2019-02-11T05:10:31.094Z,7.51
2019-02-11T05:10:57.197Z,7.56
2019-02-11T05:11:23.313Z,7.54
2019-02-11T05:11:49.446Z,7.56
2019-02-11T05:12:15.577Z,7.56
2019-02-11T05:12:41.708Z,7.6
2019-02-11T05:13:07.817Z,7.51
2019-02-11T05:13:33.919Z,7.61
2019-02-11T05:14:00.024Z,7.57
2019-02-11T05:14:26.186Z,7.5
2019-02-11T05:14:54.297Z,7.56
2019-02-11T05:15:20.396Z,7.6
2019-02-11T05:15:46.535Z,7.53
2019-02-11T05:16:12.671Z,7.57
2019-02-11T05:16:38.773Z,7.53
2019-02-11T05:17:04.889Z,7.53
2019-02-11T05:17:30.988Z,7.57
2019-02-11T05:17:57.159Z,7.53
2019-02-11T05:18:23.261Z,7.51
2019-02-11T05:18:49.397Z,7.53
2019-02-11T05:19:15.496Z,7.56
2019-02-11T05:19:41.607Z,7.51
2019-02-11T05:20:07.715Z,7.51
2019-02-11T05:20:33.818Z,7.56
2019-02-11T05:20:59.927Z,7.53
2019-02-11T05:21:26.055Z,7.53
2019-02-11T05:21:52.162Z,7.57
2019-02-11T05:22:18.274Z,7.54
2019-02-11T05:22:44.379Z,7.61
2019-02-11T05:23:10.510Z,7.61
2019-02-11T05:23:36.620Z,7.56
2019-02-11T05:24:02.750Z,7.58
2019-02-11T05:24:28.860Z,7.67
2019-02-11T05:24:54.965Z,7.57
2019-02-11T05:25:21.070Z,7.58
2019-02-11T05:25:47.205Z,7.57
2019-02-11T05:26:13.331Z,7.56
2019-02-11T05:26:39.441Z,7.6
2019-02-11T05:27:05.547Z,7.45
2019-02-11T05:27:31.668Z,7.48
2019-02-11T05:27:57.783Z,7.51
2019-02-11T05:28:23.890Z,7.42
2019-02-11T05:28:50.041Z,7.48
2019-02-11T05:29:16.154Z,7.48
2019-02-11T05:29:42.293Z,7.47
2019-02-11T05:30:08.395Z,7.5
2019-02-11T05:30:34.568Z,7.42
2019-02-11T05:31:00.691Z,7.4
2019-02-11T05:31:26.822Z,7.39
2019-02-11T05:31:53.795Z,7.45
2019-02-11T05:32:19.903Z,7.42
2019-02-11T05:32:46.081Z,7.4
2019-02-11T05:33:12.286Z,7.5
2019-02-11T05:33:38.459Z,7.47
2019-02-11T05:34:04.572Z,7.42
2019-02-11T05:34:30.707Z,7.51
2019-02-11T05:34:56.915Z,7.57
2019-02-11T05:35:23.018Z,7.51
2019-02-11T05:35:49.144Z,7.5
2019-02-11T05:36:15.293Z,7.51
2019-02-11T05:36:41.398Z,7.51
2019-02-11T05:37:07.509Z,7.51
2019-02-11T05:37:33.670Z,7.48
2019-02-11T05:37:59.950Z,7.48
2019-02-11T05:38:26.104Z,7.48
2019-02-11T05:38:52.208Z,7.47
2019-02-11T05:39:18.316Z,7.6
2019-02-11T05:39:44.420Z,7.51
2019-02-11T05:40:10.683Z,7.5
2019-02-11T05:40:36.819Z,7.48
2019-02-11T05:41:02.945Z,7.48
2019-02-11T05:41:29.053Z,7.48
2019-02-11T05:41:55.188Z,7.47
2019-02-11T05:42:21.290Z,7.53
2019-02-11T05:42:47.389Z,7.5
2019-02-11T05:43:13.501Z,7.51
2019-02-11T05:43:39.605Z,7.53
2019-02-11T05:44:06.058Z,7.43
2019-02-11T05:44:32.148Z,7.4
2019-02-11T05:44:59.592Z,7.43
2019-02-11T05:45:25.700Z,7.42
2019-02-11T05:45:51.832Z,7.4
2019-02-11T05:46:17.939Z,7.4
2019-02-11T05:46:44.042Z,7.43
2019-02-11T05:47:10.160Z,7.4
2019-02-11T05:47:36.267Z,7.4
2019-02-11T05:48:02.396Z,7.42
2019-02-11T05:48:28.502Z,7.43
2019-02-11T05:48:54.642Z,7.42
2019-02-11T05:49:20.776Z,7.36
2019-02-11T05:49:46.885Z,7.5
2019-02-11T05:50:12.997Z,7.48